sensor_id;sensor_type;location;lat;lon;timestamp;temperature;humidity
31391;DHT22;18022;45.492;11.548;2023-11-22T00:00:16;6.90;99.90
31391;DHT22;18022;45.492;11.548;2023-11-22T00:02:41;6.90;99.90
31391;DHT22;18022;45.492;11.548;2023-11-22T00:05:07;6.90;99.90
31391;DHT22;18022;45.492;11.548;2023-11-22T00:07:34;7.10;99.90
31391;DHT22;18022;45.492;11.548;2023-11-22T00:10:00;7.00;99.90
31391;DHT22;18022;45.492;11.548;2023-11-22T00:12:27;6.90;99.90
31391;DHT22;18022;45.492;11.548;2023-11-22T00:14:53;6.90;99.90
31391;DHT22;18022;45.492;11.548;2023-11-22T00:17:19;6.80;99.90
31391;DHT22;18022;45.492;11.548;2023-11-22T00:19:45;6.80;99.90
31391;DHT22;18022;45.492;11.548;2023-11-22T00:22:13;6.80;99.90
31391;DHT22;18022;45.492;11.548;2023-11-22T00:24:40;6.70;99.90
31391;DHT22;18022;45.492;11.548;2023-11-22T00:27:07;6.60;99.90
31391;DHT22;18022;45.492;11.548;2023-11-22T00:29:33;6.60;99.90
31391;DHT22;18022;45.492;11.548;2023-11-22T00:31:59;6.50;99.90
31391;DHT22;18022;45.492;11.548;2023-11-22T00:34:25;6.30;99.90
31391;DHT22;18022;45.492;11.548;2023-11-22T00:36:52;6.30;99.90
31391;DHT22;18022;45.492;11.548;2023-11-22T00:39:18;6.50;99.90
31391;DHT22;18022;45.492;11.548;2023-11-22T00:41:44;6.60;99.90
31391;DHT22;18022;45.492;11.548;2023-11-22T00:44:10;6.60;99.90
31391;DHT22;18022;45.492;11.548;2023-11-22T00:46:36;6.60;99.90
31391;DHT22;18022;45.492;11.548;2023-11-22T00:49:05;6.70;99.90
31391;DHT22;18022;45.492;11.548;2023-11-22T00:51:31;6.70;99.90
31391;DHT22;18022;45.492;11.548;2023-11-22T00:54:01;6.50;99.90
31391;DHT22;18022;45.492;11.548;2023-11-22T00:56:27;6.50;99.90
31391;DHT22;18022;45.492;11.548;2023-11-22T00:58:53;6.50;99.90
31391;DHT22;18022;45.492;11.548;2023-11-22T01:01:19;6.40;99.90
31391;DHT22;18022;45.492;11.548;2023-11-22T01:03:45;6.50;99.90
31391;DHT22;18022;45.492;11.548;2023-11-22T01:06:12;6.60;99.90
31391;DHT22;18022;45.492;11.548;2023-11-22T01:08:39;6.70;99.90
31391;DHT22;18022;45.492;11.548;2023-11-22T01:11:04;6.70;99.90
31391;DHT22;18022;45.492;11.548;2023-11-22T01:13:31;6.80;99.90
31391;DHT22;18022;45.492;11.548;2023-11-22T01:15:58;6.80;99.90
31391;DHT22;18022;45.492;11.548;2023-11-22T01:18:24;6.70;99.90
31391;DHT22;18022;45.492;11.548;2023-11-22T01:20:50;6.70;99.90
31391;DHT22;18022;45.492;11.548;2023-11-22T01:23:15;6.60;99.90
31391;DHT22;18022;45.492;11.548;2023-11-22T01:25:41;6.70;99.90
31391;DHT22;18022;45.492;11.548;2023-11-22T01:28:07;6.50;99.90
31391;DHT22;18022;45.492;11.548;2023-11-22T01:30:33;6.50;99.90
31391;DHT22;18022;45.492;11.548;2023-11-22T01:32:59;6.40;99.90
31391;DHT22;18022;45.492;11.548;2023-11-22T01:35:24;6.40;99.90
31391;DHT22;18022;45.492;11.548;2023-11-22T01:37:51;6.50;99.90
31391;DHT22;18022;45.492;11.548;2023-11-22T01:40:17;6.50;99.90
31391;DHT22;18022;45.492;11.548;2023-11-22T01:42:44;6.50;99.90
31391;DHT22;18022;45.492;11.548;2023-11-22T01:45:12;6.40;99.90
31391;DHT22;18022;45.492;11.548;2023-11-22T01:47:39;6.50;99.90
31391;DHT22;18022;45.492;11.548;2023-11-22T01:50:06;6.40;99.90
31391;DHT22;18022;45.492;11.548;2023-11-22T01:52:33;6.30;99.90
31391;DHT22;18022;45.492;11.548;2023-11-22T01:55:01;6.30;99.90
31391;DHT22;18022;45.492;11.548;2023-11-22T01:57:31;6.30;99.90
31391;DHT22;18022;45.492;11.548;2023-11-22T02:00:02;6.30;99.90
31391;DHT22;18022;45.492;11.548;2023-11-22T02:02:30;6.30;99.90
31391;DHT22;18022;45.492;11.548;2023-11-22T02:04:57;6.40;99.90
31391;DHT22;18022;45.492;11.548;2023-11-22T02:07:23;6.30;99.90
31391;DHT22;18022;45.492;11.548;2023-11-22T02:09:48;6.20;99.90
31391;DHT22;18022;45.492;11.548;2023-11-22T02:12:15;6.20;99.90
31391;DHT22;18022;45.492;11.548;2023-11-22T02:14:40;6.20;99.90
31391;DHT22;18022;45.492;11.548;2023-11-22T02:17:06;6.20;99.90
31391;DHT22;18022;45.492;11.548;2023-11-22T02:19:32;6.20;99.90
31391;DHT22;18022;45.492;11.548;2023-11-22T02:21:58;6.20;99.90
31391;DHT22;18022;45.492;11.548;2023-11-22T02:24:24;6.10;99.90
31391;DHT22;18022;45.492;11.548;2023-11-22T02:26:50;6.10;99.90
31391;DHT22;18022;45.492;11.548;2023-11-22T02:29:17;6.10;99.90
31391;DHT22;18022;45.492;11.548;2023-11-22T02:31:44;5.60;99.90
31391;DHT22;18022;45.492;11.548;2023-11-22T02:34:09;5.40;99.90
31391;DHT22;18022;45.492;11.548;2023-11-22T02:36:35;5.20;99.90
31391;DHT22;18022;45.492;11.548;2023-11-22T02:39:01;5.10;99.90
31391;DHT22;18022;45.492;11.548;2023-11-22T02:41:27;5.20;99.90
31391;DHT22;18022;45.492;11.548;2023-11-22T02:43:55;5.20;99.90
31391;DHT22;18022;45.492;11.548;2023-11-22T02:46:21;5.50;99.90
31391;DHT22;18022;45.492;11.548;2023-11-22T02:48:47;5.70;99.90
31391;DHT22;18022;45.492;11.548;2023-11-22T02:51:13;5.70;99.90
31391;DHT22;18022;45.492;11.548;2023-11-22T02:53:39;5.50;99.90
31391;DHT22;18022;45.492;11.548;2023-11-22T02:56:09;5.30;99.90
31391;DHT22;18022;45.492;11.548;2023-11-22T02:58:35;5.20;99.90
31391;DHT22;18022;45.492;11.548;2023-11-22T03:01:01;5.30;99.90
31391;DHT22;18022;45.492;11.548;2023-11-22T03:03:27;5.50;99.90
31391;DHT22;18022;45.492;11.548;2023-11-22T03:05:53;5.60;99.90
31391;DHT22;18022;45.492;11.548;2023-11-22T03:08:20;5.70;99.90
31391;DHT22;18022;45.492;11.548;2023-11-22T03:10:45;5.80;99.90
31391;DHT22;18022;45.492;11.548;2023-11-22T03:13:11;5.80;99.90
31391;DHT22;18022;45.492;11.548;2023-11-22T03:15:38;5.90;99.90
31391;DHT22;18022;45.492;11.548;2023-11-22T03:18:04;5.80;99.90
31391;DHT22;18022;45.492;11.548;2023-11-22T03:20:32;5.50;99.90
31391;DHT22;18022;45.492;11.548;2023-11-22T03:22:58;5.30;99.90
31391;DHT22;18022;45.492;11.548;2023-11-22T03:25:24;5.10;99.90
31391;DHT22;18022;45.492;11.548;2023-11-22T03:27:50;5.00;99.90
31391;DHT22;18022;45.492;11.548;2023-11-22T03:30:15;5.00;99.90
31391;DHT22;18022;45.492;11.548;2023-11-22T03:32:41;5.00;99.90
31391;DHT22;18022;45.492;11.548;2023-11-22T03:35:08;5.10;99.90
31391;DHT22;18022;45.492;11.548;2023-11-22T03:37:34;5.00;99.90
31391;DHT22;18022;45.492;11.548;2023-11-22T03:40:00;5.20;99.90
31391;DHT22;18022;45.492;11.548;2023-11-22T03:42:26;5.30;99.90
31391;DHT22;18022;45.492;11.548;2023-11-22T03:44:53;5.30;99.90
31391;DHT22;18022;45.492;11.548;2023-11-22T03:47:22;5.30;99.90
31391;DHT22;18022;45.492;11.548;2023-11-22T03:49:47;5.50;99.90
31391;DHT22;18022;45.492;11.548;2023-11-22T03:52:14;5.40;99.90
31391;DHT22;18022;45.492;11.548;2023-11-22T03:54:39;5.30;99.90
31391;DHT22;18022;45.492;11.548;2023-11-22T03:57:05;5.10;99.90
31391;DHT22;18022;45.492;11.548;2023-11-22T03:59:31;4.90;99.90
31391;DHT22;18022;45.492;11.548;2023-11-22T04:01:57;4.90;99.90
31391;DHT22;18022;45.492;11.548;2023-11-22T04:04:23;4.90;99.90
31391;DHT22;18022;45.492;11.548;2023-11-22T04:06:49;5.00;99.90
31391;DHT22;18022;45.492;11.548;2023-11-22T04:09:15;4.90;99.90
31391;DHT22;18022;45.492;11.548;2023-11-22T04:11:42;4.80;99.90
31391;DHT22;18022;45.492;11.548;2023-11-22T04:14:08;4.90;99.90
31391;DHT22;18022;45.492;11.548;2023-11-22T04:16:34;4.90;99.90
31391;DHT22;18022;45.492;11.548;2023-11-22T04:19:00;5.00;99.90
31391;DHT22;18022;45.492;11.548;2023-11-22T04:21:26;5.00;99.90
31391;DHT22;18022;45.492;11.548;2023-11-22T04:23:51;5.00;99.90
31391;DHT22;18022;45.492;11.548;2023-11-22T04:26:17;5.20;99.90
31391;DHT22;18022;45.492;11.548;2023-11-22T04:28:45;5.20;99.90
31391;DHT22;18022;45.492;11.548;2023-11-22T04:31:11;5.20;99.90
31391;DHT22;18022;45.492;11.548;2023-11-22T04:33:38;5.20;99.90
31391;DHT22;18022;45.492;11.548;2023-11-22T04:36:04;5.20;99.90
31391;DHT22;18022;45.492;11.548;2023-11-22T04:38:30;5.30;99.90
31391;DHT22;18022;45.492;11.548;2023-11-22T04:40:56;5.20;99.90
31391;DHT22;18022;45.492;11.548;2023-11-22T04:43:22;5.20;99.90
31391;DHT22;18022;45.492;11.548;2023-11-22T04:45:49;5.30;99.90
31391;DHT22;18022;45.492;11.548;2023-11-22T04:48:15;5.40;99.90
31391;DHT22;18022;45.492;11.548;2023-11-22T04:50:41;5.50;99.90
31391;DHT22;18022;45.492;11.548;2023-11-22T04:53:09;5.50;99.90
31391;DHT22;18022;45.492;11.548;2023-11-22T04:55:35;5.40;99.90
31391;DHT22;18022;45.492;11.548;2023-11-22T04:58:01;5.40;99.90
31391;DHT22;18022;45.492;11.548;2023-11-22T05:00:27;5.40;99.90
31391;DHT22;18022;45.492;11.548;2023-11-22T05:02:53;5.20;99.90
31391;DHT22;18022;45.492;11.548;2023-11-22T05:05:20;5.00;99.90
31391;DHT22;18022;45.492;11.548;2023-11-22T05:07:46;4.90;99.90
31391;DHT22;18022;45.492;11.548;2023-11-22T05:10:12;4.90;99.90
31391;DHT22;18022;45.492;11.548;2023-11-22T05:12:38;5.10;99.90
31391;DHT22;18022;45.492;11.548;2023-11-22T05:15:04;5.20;99.90
31391;DHT22;18022;45.492;11.548;2023-11-22T05:17:30;5.20;99.90
31391;DHT22;18022;45.492;11.548;2023-11-22T05:19:56;5.10;99.90
31391;DHT22;18022;45.492;11.548;2023-11-22T05:22:22;5.30;99.90
31391;DHT22;18022;45.492;11.548;2023-11-22T05:24:49;5.20;99.90
31391;DHT22;18022;45.492;11.548;2023-11-22T05:27:15;5.20;99.90
31391;DHT22;18022;45.492;11.548;2023-11-22T05:29:40;5.20;99.90
31391;DHT22;18022;45.492;11.548;2023-11-22T05:32:06;5.20;99.90
31391;DHT22;18022;45.492;11.548;2023-11-22T05:34:32;5.30;99.90
31391;DHT22;18022;45.492;11.548;2023-11-22T05:36:58;5.20;99.90
31391;DHT22;18022;45.492;11.548;2023-11-22T05:39:24;5.20;99.90
31391;DHT22;18022;45.492;11.548;2023-11-22T05:41:51;5.30;99.90
31391;DHT22;18022;45.492;11.548;2023-11-22T05:44:16;5.40;99.90
31391;DHT22;18022;45.492;11.548;2023-11-22T05:46:42;5.40;99.90
31391;DHT22;18022;45.492;11.548;2023-11-22T05:49:08;5.40;99.90
31391;DHT22;18022;45.492;11.548;2023-11-22T05:51:36;5.40;99.90
31391;DHT22;18022;45.492;11.548;2023-11-22T05:54:03;5.40;99.90
31391;DHT22;18022;45.492;11.548;2023-11-22T05:56:29;5.30;99.90
31391;DHT22;18022;45.492;11.548;2023-11-22T05:58:55;5.30;99.90
31391;DHT22;18022;45.492;11.548;2023-11-22T06:01:20;5.30;99.90
31391;DHT22;18022;45.492;11.548;2023-11-22T06:03:46;5.30;99.90
31391;DHT22;18022;45.492;11.548;2023-11-22T06:06:12;5.20;99.90
31391;DHT22;18022;45.492;11.548;2023-11-22T06:08:39;5.30;99.90
31391;DHT22;18022;45.492;11.548;2023-11-22T06:11:05;5.40;99.90
31391;DHT22;18022;45.492;11.548;2023-11-22T06:13:32;5.40;99.90
31391;DHT22;18022;45.492;11.548;2023-11-22T06:15:58;5.20;99.90
31391;DHT22;18022;45.492;11.548;2023-11-22T06:18:24;5.20;99.90
31391;DHT22;18022;45.492;11.548;2023-11-22T06:20:55;5.30;99.90
31391;DHT22;18022;45.492;11.548;2023-11-22T06:23:21;5.50;99.90
31391;DHT22;18022;45.492;11.548;2023-11-22T06:25:47;5.40;99.90
31391;DHT22;18022;45.492;11.548;2023-11-22T06:28:13;5.30;99.90
31391;DHT22;18022;45.492;11.548;2023-11-22T06:30:39;5.30;99.90
31391;DHT22;18022;45.492;11.548;2023-11-22T06:33:04;5.20;99.90
31391;DHT22;18022;45.492;11.548;2023-11-22T06:35:30;5.20;99.90
31391;DHT22;18022;45.492;11.548;2023-11-22T06:37:56;5.30;99.90
31391;DHT22;18022;45.492;11.548;2023-11-22T06:40:21;5.30;99.90
31391;DHT22;18022;45.492;11.548;2023-11-22T06:42:48;5.20;99.90
31391;DHT22;18022;45.492;11.548;2023-11-22T06:45:16;5.20;99.90
31391;DHT22;18022;45.492;11.548;2023-11-22T06:47:43;5.20;99.90
31391;DHT22;18022;45.492;11.548;2023-11-22T06:50:11;5.20;99.90
31391;DHT22;18022;45.492;11.548;2023-11-22T06:52:41;5.40;99.90
31391;DHT22;18022;45.492;11.548;2023-11-22T06:55:08;5.40;99.90
31391;DHT22;18022;45.492;11.548;2023-11-22T06:57:35;5.50;99.90
31391;DHT22;18022;45.492;11.548;2023-11-22T07:00:02;5.50;99.90
31391;DHT22;18022;45.492;11.548;2023-11-22T07:02:33;5.60;99.90
31391;DHT22;18022;45.492;11.548;2023-11-22T07:05:01;5.50;99.90
31391;DHT22;18022;45.492;11.548;2023-11-22T07:07:26;5.40;99.90
31391;DHT22;18022;45.492;11.548;2023-11-22T07:09:52;5.40;99.90
31391;DHT22;18022;45.492;11.548;2023-11-22T07:12:18;5.30;99.90
31391;DHT22;18022;45.492;11.548;2023-11-22T07:14:48;5.30;99.90
31391;DHT22;18022;45.492;11.548;2023-11-22T07:17:15;5.40;99.90
31391;DHT22;18022;45.492;11.548;2023-11-22T07:19:42;5.50;99.90
31391;DHT22;18022;45.492;11.548;2023-11-22T07:22:13;5.70;99.90
31391;DHT22;18022;45.492;11.548;2023-11-22T07:24:45;5.80;99.90
31391;DHT22;18022;45.492;11.548;2023-11-22T07:27:14;5.90;99.90
31391;DHT22;18022;45.492;11.548;2023-11-22T07:29:41;6.00;99.90
31391;DHT22;18022;45.492;11.548;2023-11-22T07:32:07;6.00;99.90
31391;DHT22;18022;45.492;11.548;2023-11-22T07:34:38;6.10;99.90
31391;DHT22;18022;45.492;11.548;2023-11-22T07:37:05;6.10;99.90
31391;DHT22;18022;45.492;11.548;2023-11-22T07:39:33;6.20;99.90
31391;DHT22;18022;45.492;11.548;2023-11-22T07:42:01;6.30;99.90
31391;DHT22;18022;45.492;11.548;2023-11-22T07:44:26;6.40;99.90
31391;DHT22;18022;45.492;11.548;2023-11-22T07:46:52;6.50;99.90
31391;DHT22;18022;45.492;11.548;2023-11-22T07:49:21;6.50;99.90
31391;DHT22;18022;45.492;11.548;2023-11-22T07:51:48;6.70;99.90
31391;DHT22;18022;45.492;11.548;2023-11-22T07:54:20;6.90;99.90
31391;DHT22;18022;45.492;11.548;2023-11-22T07:56:48;7.00;99.90
31391;DHT22;18022;45.492;11.548;2023-11-22T07:59:14;7.10;99.90
31391;DHT22;18022;45.492;11.548;2023-11-22T08:01:42;7.10;99.90
31391;DHT22;18022;45.492;11.548;2023-11-22T08:04:09;7.20;99.90
31391;DHT22;18022;45.492;11.548;2023-11-22T08:06:35;7.30;99.90
31391;DHT22;18022;45.492;11.548;2023-11-22T08:09:01;7.30;99.90
31391;DHT22;18022;45.492;11.548;2023-11-22T08:11:30;7.50;99.90
31391;DHT22;18022;45.492;11.548;2023-11-22T08:13:57;7.60;99.90
31391;DHT22;18022;45.492;11.548;2023-11-22T08:16:25;7.70;99.90
31391;DHT22;18022;45.492;11.548;2023-11-22T08:18:51;7.90;99.90
31391;DHT22;18022;45.492;11.548;2023-11-22T08:21:17;8.00;99.90
31391;DHT22;18022;45.492;11.548;2023-11-22T08:23:43;8.10;99.90
31391;DHT22;18022;45.492;11.548;2023-11-22T08:26:10;8.30;99.90
31391;DHT22;18022;45.492;11.548;2023-11-22T08:28:37;8.40;99.90
31391;DHT22;18022;45.492;11.548;2023-11-22T08:31:03;8.50;99.90
31391;DHT22;18022;45.492;11.548;2023-11-22T08:33:35;8.60;99.90
31391;DHT22;18022;45.492;11.548;2023-11-22T08:36:01;8.90;99.90
31391;DHT22;18022;45.492;11.548;2023-11-22T08:38:28;9.10;99.90
31391;DHT22;18022;45.492;11.548;2023-11-22T08:40:53;9.30;99.90
31391;DHT22;18022;45.492;11.548;2023-11-22T08:43:20;9.30;99.90
31391;DHT22;18022;45.492;11.548;2023-11-22T08:45:51;9.50;99.90
31391;DHT22;18022;45.492;11.548;2023-11-22T08:48:17;9.60;99.90
31391;DHT22;18022;45.492;11.548;2023-11-22T08:50:43;9.80;99.90
31391;DHT22;18022;45.492;11.548;2023-11-22T08:53:10;9.80;99.90
31391;DHT22;18022;45.492;11.548;2023-11-22T08:55:36;9.90;99.90
31391;DHT22;18022;45.492;11.548;2023-11-22T08:58:02;10.00;99.90
31391;DHT22;18022;45.492;11.548;2023-11-22T09:00:27;10.10;99.90
31391;DHT22;18022;45.492;11.548;2023-11-22T09:02:57;10.00;99.90
31391;DHT22;18022;45.492;11.548;2023-11-22T09:05:23;10.10;99.90
31391;DHT22;18022;45.492;11.548;2023-11-22T09:07:50;10.10;99.90
31391;DHT22;18022;45.492;11.548;2023-11-22T09:10:16;10.30;99.90
31391;DHT22;18022;45.492;11.548;2023-11-22T09:12:44;10.30;99.90
31391;DHT22;18022;45.492;11.548;2023-11-22T09:15:11;10.50;99.90
31391;DHT22;18022;45.492;11.548;2023-11-22T09:17:38;10.60;99.90
31391;DHT22;18022;45.492;11.548;2023-11-22T09:20:15;10.70;99.90
31391;DHT22;18022;45.492;11.548;2023-11-22T09:22:45;11.00;99.90
31391;DHT22;18022;45.492;11.548;2023-11-22T09:25:16;11.30;99.90
31391;DHT22;18022;45.492;11.548;2023-11-22T09:27:45;11.50;99.90
31391;DHT22;18022;45.492;11.548;2023-11-22T09:30:16;11.80;99.90
31391;DHT22;18022;45.492;11.548;2023-11-22T09:33:01;11.80;99.90
31391;DHT22;18022;45.492;11.548;2023-11-22T09:35:27;12.00;99.90
31391;DHT22;18022;45.492;11.548;2023-11-22T09:38:05;11.90;99.90
31391;DHT22;18022;45.492;11.548;2023-11-22T09:40:45;11.90;99.90
31391;DHT22;18022;45.492;11.548;2023-11-22T09:43:12;11.80;99.90
31391;DHT22;18022;45.492;11.548;2023-11-22T09:45:40;12.00;99.90
31391;DHT22;18022;45.492;11.548;2023-11-22T09:48:19;12.10;99.90
31391;DHT22;18022;45.492;11.548;2023-11-22T09:51:04;12.30;99.90
31391;DHT22;18022;45.492;11.548;2023-11-22T09:53:39;12.30;99.90
31391;DHT22;18022;45.492;11.548;2023-11-22T09:56:07;12.50;99.90
31391;DHT22;18022;45.492;11.548;2023-11-22T09:58:34;12.80;99.90
31391;DHT22;18022;45.492;11.548;2023-11-22T10:01:03;13.00;99.90
31391;DHT22;18022;45.492;11.548;2023-11-22T10:03:30;12.90;99.90
31391;DHT22;18022;45.492;11.548;2023-11-22T10:05:56;12.70;99.90
31391;DHT22;18022;45.492;11.548;2023-11-22T10:08:23;12.90;99.90
31391;DHT22;18022;45.492;11.548;2023-11-22T10:10:49;13.20;99.90
31391;DHT22;18022;45.492;11.548;2023-11-22T10:13:20;13.10;99.90
31391;DHT22;18022;45.492;11.548;2023-11-22T10:15:52;13.00;99.90
31391;DHT22;18022;45.492;11.548;2023-11-22T10:18:19;13.20;99.90
31391;DHT22;18022;45.492;11.548;2023-11-22T10:20:47;13.10;99.80
31391;DHT22;18022;45.492;11.548;2023-11-22T10:23:14;13.30;99.40
31391;DHT22;18022;45.492;11.548;2023-11-22T10:25:51;13.50;99.00
31391;DHT22;18022;45.492;11.548;2023-11-22T10:28:21;13.70;97.60
31391;DHT22;18022;45.492;11.548;2023-11-22T10:30:50;14.00;97.80
31391;DHT22;18022;45.492;11.548;2023-11-22T10:33:17;14.20;98.50
31391;DHT22;18022;45.492;11.548;2023-11-22T10:35:47;13.90;96.90
31391;DHT22;18022;45.492;11.548;2023-11-22T10:38:20;13.70;97.60
31391;DHT22;18022;45.492;11.548;2023-11-22T10:40:46;13.70;97.10
31391;DHT22;18022;45.492;11.548;2023-11-22T10:43:14;13.80;96.80
31391;DHT22;18022;45.492;11.548;2023-11-22T10:45:41;14.10;97.30
31391;DHT22;18022;45.492;11.548;2023-11-22T10:48:11;13.90;96.30
31391;DHT22;18022;45.492;11.548;2023-11-22T10:50:37;14.00;96.80
31391;DHT22;18022;45.492;11.548;2023-11-22T10:53:06;14.10;96.70
31391;DHT22;18022;45.492;11.548;2023-11-22T10:55:33;14.20;96.50
31391;DHT22;18022;45.492;11.548;2023-11-22T10:58:02;14.40;96.90
31391;DHT22;18022;45.492;11.548;2023-11-22T11:00:31;14.30;96.00
31391;DHT22;18022;45.492;11.548;2023-11-22T11:03:08;14.50;96.00
31391;DHT22;18022;45.492;11.548;2023-11-22T11:05:40;14.70;96.00
31391;DHT22;18022;45.492;11.548;2023-11-22T11:08:14;14.80;95.80
31391;DHT22;18022;45.492;11.548;2023-11-22T11:10:43;15.10;95.70
31391;DHT22;18022;45.492;11.548;2023-11-22T11:13:09;15.10;95.00
31391;DHT22;18022;45.492;11.548;2023-11-22T11:15:36;15.10;95.20
31391;DHT22;18022;45.492;11.548;2023-11-22T11:18:05;15.00;95.20
31391;DHT22;18022;45.492;11.548;2023-11-22T11:23:17;15.20;94.30
31391;DHT22;18022;45.492;11.548;2023-11-22T11:25:48;15.30;94.20
31391;DHT22;18022;45.492;11.548;2023-11-22T11:28:14;15.30;93.90
31391;DHT22;18022;45.492;11.548;2023-11-22T11:33:06;15.50;94.10
31391;DHT22;18022;45.492;11.548;2023-11-22T11:35:46;15.60;93.90
31391;DHT22;18022;45.492;11.548;2023-11-22T11:38:17;15.70;94.40
31391;DHT22;18022;45.492;11.548;2023-11-22T11:40:46;15.70;94.70
31391;DHT22;18022;45.492;11.548;2023-11-22T11:43:12;15.70;94.40
31391;DHT22;18022;45.492;11.548;2023-11-22T11:45:42;15.70;94.60
31391;DHT22;18022;45.492;11.548;2023-11-22T11:48:15;15.90;94.60
31391;DHT22;18022;45.492;11.548;2023-11-22T11:50:42;15.80;93.70
31391;DHT22;18022;45.492;11.548;2023-11-22T11:53:11;15.90;93.60
31391;DHT22;18022;45.492;11.548;2023-11-22T11:55:38;15.90;94.20
31391;DHT22;18022;45.492;11.548;2023-11-22T11:58:07;15.90;94.30
31391;DHT22;18022;45.492;11.548;2023-11-22T12:00:38;16.00;94.30
31391;DHT22;18022;45.492;11.548;2023-11-22T12:03:07;16.20;94.10
31391;DHT22;18022;45.492;11.548;2023-11-22T12:05:37;16.20;94.10
31391;DHT22;18022;45.492;11.548;2023-11-22T12:08:03;16.10;94.30
31391;DHT22;18022;45.492;11.548;2023-11-22T12:10:29;16.30;94.10
31391;DHT22;18022;45.492;11.548;2023-11-22T12:12:56;16.20;94.20
31391;DHT22;18022;45.492;11.548;2023-11-22T12:15:26;16.10;93.60
31391;DHT22;18022;45.492;11.548;2023-11-22T12:17:55;16.30;93.90
31391;DHT22;18022;45.492;11.548;2023-11-22T12:20:23;16.50;94.10
31391;DHT22;18022;45.492;11.548;2023-11-22T12:22:51;16.50;94.20
31391;DHT22;18022;45.492;11.548;2023-11-22T12:25:17;16.50;93.60
31391;DHT22;18022;45.492;11.548;2023-11-22T12:27:44;16.50;92.70
31391;DHT22;18022;45.492;11.548;2023-11-22T12:30:28;16.40;93.00
31391;DHT22;18022;45.492;11.548;2023-11-22T12:32:55;16.40;92.30
31391;DHT22;18022;45.492;11.548;2023-11-22T12:35:22;16.40;92.60
31391;DHT22;18022;45.492;11.548;2023-11-22T12:37:48;16.50;92.60
31391;DHT22;18022;45.492;11.548;2023-11-22T12:40:15;16.50;92.30
31391;DHT22;18022;45.492;11.548;2023-11-22T12:42:50;16.50;92.90
31391;DHT22;18022;45.492;11.548;2023-11-22T12:45:26;16.50;92.70
31391;DHT22;18022;45.492;11.548;2023-11-22T12:47:53;16.60;93.10
31391;DHT22;18022;45.492;11.548;2023-11-22T12:50:30;16.50;92.30
31391;DHT22;18022;45.492;11.548;2023-11-22T12:53:13;16.60;92.60
31391;DHT22;18022;45.492;11.548;2023-11-22T12:55:46;16.80;92.80
31391;DHT22;18022;45.492;11.548;2023-11-22T12:58:13;16.70;92.30
31391;DHT22;18022;45.492;11.548;2023-11-22T13:00:39;16.60;91.70
31391;DHT22;18022;45.492;11.548;2023-11-22T13:03:09;16.60;91.60
31391;DHT22;18022;45.492;11.548;2023-11-22T13:05:39;16.50;91.80
31391;DHT22;18022;45.492;11.548;2023-11-22T13:08:05;16.50;92.20
31391;DHT22;18022;45.492;11.548;2023-11-22T13:10:31;16.50;91.80
31391;DHT22;18022;45.492;11.548;2023-11-22T13:12:57;16.40;91.10
31391;DHT22;18022;45.492;11.548;2023-11-22T13:15:24;16.30;91.70
31391;DHT22;18022;45.492;11.548;2023-11-22T13:17:55;16.30;92.20
31391;DHT22;18022;45.492;11.548;2023-11-22T13:20:25;16.30;91.70
31391;DHT22;18022;45.492;11.548;2023-11-22T13:22:54;16.30;92.00
31391;DHT22;18022;45.492;11.548;2023-11-22T13:25:22;16.20;91.80
31391;DHT22;18022;45.492;11.548;2023-11-22T13:27:50;16.20;92.50
31391;DHT22;18022;45.492;11.548;2023-11-22T13:30:17;16.20;91.70
31391;DHT22;18022;45.492;11.548;2023-11-22T13:32:46;16.30;92.50
31391;DHT22;18022;45.492;11.548;2023-11-22T13:35:12;16.20;92.20
31391;DHT22;18022;45.492;11.548;2023-11-22T13:37:43;16.10;92.60
31391;DHT22;18022;45.492;11.548;2023-11-22T13:40:11;16.20;92.10
31391;DHT22;18022;45.492;11.548;2023-11-22T13:42:46;16.10;91.70
31391;DHT22;18022;45.492;11.548;2023-11-22T13:45:14;16.10;91.80
31391;DHT22;18022;45.492;11.548;2023-11-22T13:48:01;15.90;91.50
31391;DHT22;18022;45.492;11.548;2023-11-22T13:50:30;15.90;91.00
31391;DHT22;18022;45.492;11.548;2023-11-22T13:52:57;15.90;91.50
31391;DHT22;18022;45.492;11.548;2023-11-22T13:55:26;15.80;92.20
31391;DHT22;18022;45.492;11.548;2023-11-22T13:57:57;15.80;91.90
31391;DHT22;18022;45.492;11.548;2023-11-22T14:00:25;15.70;92.10
31391;DHT22;18022;45.492;11.548;2023-11-22T14:02:56;15.50;92.00
31391;DHT22;18022;45.492;11.548;2023-11-22T14:05:23;15.40;92.00
31391;DHT22;18022;45.492;11.548;2023-11-22T14:07:49;15.30;92.40
31391;DHT22;18022;45.492;11.548;2023-11-22T14:10:17;15.20;92.60
31391;DHT22;18022;45.492;11.548;2023-11-22T14:12:43;15.20;92.50
31391;DHT22;18022;45.492;11.548;2023-11-22T14:15:10;15.00;92.40
31391;DHT22;18022;45.492;11.548;2023-11-22T14:17:36;15.00;92.80
31391;DHT22;18022;45.492;11.548;2023-11-22T14:20:05;15.00;92.80
31391;DHT22;18022;45.492;11.548;2023-11-22T14:22:32;14.90;93.00
31391;DHT22;18022;45.492;11.548;2023-11-22T14:24:58;14.90;93.20
31391;DHT22;18022;45.492;11.548;2023-11-22T14:27:25;14.70;93.70
31391;DHT22;18022;45.492;11.548;2023-11-22T14:29:53;14.60;94.70
31391;DHT22;18022;45.492;11.548;2023-11-22T14:32:19;14.50;94.70
31391;DHT22;18022;45.492;11.548;2023-11-22T14:34:46;14.40;94.90
31391;DHT22;18022;45.492;11.548;2023-11-22T14:37:13;14.30;94.10
31391;DHT22;18022;45.492;11.548;2023-11-22T14:39:41;14.30;94.00
31391;DHT22;18022;45.492;11.548;2023-11-22T14:42:07;14.40;93.90
31391;DHT22;18022;45.492;11.548;2023-11-22T14:44:34;14.30;94.20
31391;DHT22;18022;45.492;11.548;2023-11-22T14:47:00;14.20;95.20
31391;DHT22;18022;45.492;11.548;2023-11-22T14:49:32;14.00;95.40
31391;DHT22;18022;45.492;11.548;2023-11-22T14:51:57;13.80;95.50
31391;DHT22;18022;45.492;11.548;2023-11-22T14:54:23;13.60;95.50
31391;DHT22;18022;45.492;11.548;2023-11-22T14:56:49;13.40;95.70
31391;DHT22;18022;45.492;11.548;2023-11-22T14:59:15;13.10;95.80
31391;DHT22;18022;45.492;11.548;2023-11-22T15:01:42;13.00;95.90
31391;DHT22;18022;45.492;11.548;2023-11-22T15:04:09;13.00;95.30
31391;DHT22;18022;45.492;11.548;2023-11-22T15:06:36;13.10;95.40
31391;DHT22;18022;45.492;11.548;2023-11-22T15:09:02;12.90;95.70
31391;DHT22;18022;45.492;11.548;2023-11-22T15:11:36;12.80;96.30
31391;DHT22;18022;45.492;11.548;2023-11-22T15:14:03;12.90;97.00
31391;DHT22;18022;45.492;11.548;2023-11-22T15:16:29;12.80;98.30
31391;DHT22;18022;45.492;11.548;2023-11-22T15:18:54;12.60;98.60
31391;DHT22;18022;45.492;11.548;2023-11-22T15:21:20;12.40;98.80
31391;DHT22;18022;45.492;11.548;2023-11-22T15:23:46;12.30;98.80
31391;DHT22;18022;45.492;11.548;2023-11-22T15:26:13;12.10;99.20
31391;DHT22;18022;45.492;11.548;2023-11-22T15:28:39;11.90;99.50
31391;DHT22;18022;45.492;11.548;2023-11-22T15:31:05;11.90;99.60